sensor_id;sensor_type;location;lat;lon;timestamp;P1;durP1;ratioP1;P2;durP2;ratioP2
6626;SDS011;3349;49.830;8.748;2023-04-07T00:01:29;16.08;;;13.07;;
6626;SDS011;3349;49.830;8.748;2023-04-07T00:03:56;15.68;;;12.55;;
6626;SDS011;3349;49.830;8.748;2023-04-07T00:06:23;16.08;;;12.73;;
6626;SDS011;3349;49.830;8.748;2023-04-07T00:08:51;17.88;;;13.70;;
6626;SDS011;3349;49.830;8.748;2023-04-07T00:11:18;16.35;;;12.75;;
6626;SDS011;3349;49.830;8.748;2023-04-07T00:13:45;15.57;;;12.27;;
6626;SDS011;3349;49.830;8.748;2023-04-07T00:16:11;18.27;;;12.70;;
6626;SDS011;3349;49.830;8.748;2023-04-07T00:18:39;14.07;;;11.18;;
6626;SDS011;3349;49.830;8.748;2023-04-07T00:21:06;16.02;;;12.48;;
6626;SDS011;3349;49.830;8.748;2023-04-07T00:23:33;16.75;;;12.20;;
6626;SDS011;3349;49.830;8.748;2023-04-07T00:26:00;17.02;;;11.90;;
6626;SDS011;3349;49.830;8.748;2023-04-07T00:28:26;15.48;;;11.45;;
6626;SDS011;3349;49.830;8.748;2023-04-07T00:30:53;15.25;;;11.15;;
6626;SDS011;3349;49.830;8.748;2023-04-07T00:33:20;16.58;;;11.60;;
6626;SDS011;3349;49.830;8.748;2023-04-07T00:35:48;16.10;;;12.30;;
6626;SDS011;3349;49.830;8.748;2023-04-07T00:38:15;15.27;;;11.75;;
6626;SDS011;3349;49.830;8.748;2023-04-07T00:40:41;14.43;;;11.50;;
6626;SDS011;3349;49.830;8.748;2023-04-07T00:43:08;12.82;;;11.13;;
6626;SDS011;3349;49.830;8.748;2023-04-07T00:45:35;13.52;;;11.48;;
6626;SDS011;3349;49.830;8.748;2023-04-07T00:48:02;14.43;;;11.85;;
6626;SDS011;3349;49.830;8.748;2023-04-07T00:50:29;13.65;;;11.63;;
6626;SDS011;3349;49.830;8.748;2023-04-07T00:52:57;15.23;;;12.07;;
6626;SDS011;3349;49.830;8.748;2023-04-07T00:55:26;15.68;;;12.00;;
6626;SDS011;3349;49.830;8.748;2023-04-07T00:57:53;14.85;;;12.02;;
6626;SDS011;3349;49.830;8.748;2023-04-07T01:00:19;15.07;;;12.13;;
6626;SDS011;3349;49.830;8.748;2023-04-07T01:02:47;18.13;;;11.80;;
6626;SDS011;3349;49.830;8.748;2023-04-07T01:05:22;16.13;;;12.10;;
6626;SDS011;3349;49.830;8.748;2023-04-07T01:07:54;17.67;;;12.75;;
6626;SDS011;3349;49.830;8.748;2023-04-07T01:10:42;18.30;;;12.73;;
6626;SDS011;3349;49.830;8.748;2023-04-07T01:13:16;14.80;;;12.02;;
6626;SDS011;3349;49.830;8.748;2023-04-07T01:15:51;15.60;;;12.05;;
6626;SDS011;3349;49.830;8.748;2023-04-07T01:18:21;16.00;;;11.30;;
6626;SDS011;3349;49.830;8.748;2023-04-07T01:20:51;18.48;;;12.73;;
6626;SDS011;3349;49.830;8.748;2023-04-07T01:23:29;16.77;;;12.30;;
6626;SDS011;3349;49.830;8.748;2023-04-07T01:26:13;13.18;;;10.77;;
6626;SDS011;3349;49.830;8.748;2023-04-07T01:29:06;17.73;;;12.07;;
6626;SDS011;3349;49.830;8.748;2023-04-07T01:31:42;14.57;;;11.10;;
6626;SDS011;3349;49.830;8.748;2023-04-07T01:34:10;18.00;;;12.18;;
6626;SDS011;3349;49.830;8.748;2023-04-07T01:36:38;21.27;;;13.60;;
6626;SDS011;3349;49.830;8.748;2023-04-07T01:39:06;16.63;;;12.68;;
6626;SDS011;3349;49.830;8.748;2023-04-07T01:41:33;14.95;;;11.98;;
6626;SDS011;3349;49.830;8.748;2023-04-07T01:44:01;15.32;;;11.50;;
6626;SDS011;3349;49.830;8.748;2023-04-07T01:46:28;16.05;;;11.63;;
6626;SDS011;3349;49.830;8.748;2023-04-07T01:48:57;12.90;;;11.27;;
6626;SDS011;3349;49.830;8.748;2023-04-07T01:51:25;15.45;;;11.55;;
6626;SDS011;3349;49.830;8.748;2023-04-07T01:53:53;16.50;;;11.23;;
6626;SDS011;3349;49.830;8.748;2023-04-07T01:56:20;14.40;;;11.10;;
6626;SDS011;3349;49.830;8.748;2023-04-07T01:58:47;15.07;;;11.48;;
6626;SDS011;3349;49.830;8.748;2023-04-07T02:01:14;12.68;;;10.25;;
6626;SDS011;3349;49.830;8.748;2023-04-07T02:03:42;13.73;;;11.02;;
6626;SDS011;3349;49.830;8.748;2023-04-07T02:06:14;13.90;;;10.93;;
6626;SDS011;3349;49.830;8.748;2023-04-07T02:08:45;12.88;;;10.85;;
6626;SDS011;3349;49.830;8.748;2023-04-07T02:11:14;14.35;;;11.07;;
6626;SDS011;3349;49.830;8.748;2023-04-07T02:13:43;14.30;;;10.80;;
6626;SDS011;3349;49.830;8.748;2023-04-07T02:16:12;16.83;;;11.38;;
6626;SDS011;3349;49.830;8.748;2023-04-07T02:18:40;14.18;;;11.10;;
6626;SDS011;3349;49.830;8.748;2023-04-07T02:21:08;12.18;;;10.88;;
6626;SDS011;3349;49.830;8.748;2023-04-07T02:23:37;14.13;;;11.40;;
6626;SDS011;3349;49.830;8.748;2023-04-07T02:26:03;13.02;;;11.35;;
6626;SDS011;3349;49.830;8.748;2023-04-07T02:28:30;15.52;;;11.43;;
6626;SDS011;3349;49.830;8.748;2023-04-07T02:30:57;14.00;;;10.80;;
6626;SDS011;3349;49.830;8.748;2023-04-07T02:33:24;14.13;;;11.65;;
6626;SDS011;3349;49.830;8.748;2023-04-07T02:35:50;13.82;;;11.43;;
6626;SDS011;3349;49.830;8.748;2023-04-07T02:38:17;14.38;;;11.02;;
6626;SDS011;3349;49.830;8.748;2023-04-07T02:40:46;16.67;;;11.77;;
6626;SDS011;3349;49.830;8.748;2023-04-07T02:43:12;15.77;;;12.77;;
6626;SDS011;3349;49.830;8.748;2023-04-07T02:45:40;16.70;;;12.90;;
6626;SDS011;3349;49.830;8.748;2023-04-07T02:48:07;17.45;;;12.98;;
6626;SDS011;3349;49.830;8.748;2023-04-07T02:50:34;14.55;;;11.27;;
6626;SDS011;3349;49.830;8.748;2023-04-07T02:53:01;15.68;;;12.15;;
6626;SDS011;3349;49.830;8.748;2023-04-07T02:55:28;16.02;;;12.07;;
6626;SDS011;3349;49.830;8.748;2023-04-07T02:57:56;19.92;;;13.68;;
6626;SDS011;3349;49.830;8.748;2023-04-07T03:00:24;15.75;;;11.93;;
6626;SDS011;3349;49.830;8.748;2023-04-07T03:02:51;16.00;;;11.65;;
6626;SDS011;3349;49.830;8.748;2023-04-07T03:05:17;15.73;;;11.65;;
6626;SDS011;3349;49.830;8.748;2023-04-07T03:07:44;15.23;;;11.50;;
6626;SDS011;3349;49.830;8.748;2023-04-07T03:10:11;14.15;;;11.13;;
6626;SDS011;3349;49.830;8.748;2023-04-07T03:12:38;12.75;;;10.10;;
6626;SDS011;3349;49.830;8.748;2023-04-07T03:15:07;13.68;;;10.57;;
6626;SDS011;3349;49.830;8.748;2023-04-07T03:17:34;12.52;;;10.75;;
6626;SDS011;3349;49.830;8.748;2023-04-07T03:20:01;14.73;;;10.95;;
6626;SDS011;3349;49.830;8.748;2023-04-07T03:22:28;16.05;;;11.20;;
6626;SDS011;3349;49.830;8.748;2023-04-07T03:24:55;14.18;;;11.30;;
6626;SDS011;3349;49.830;8.748;2023-04-07T03:27:21;14.43;;;10.90;;
6626;SDS011;3349;49.830;8.748;2023-04-07T03:29:48;12.07;;;10.25;;
6626;SDS011;3349;49.830;8.748;2023-04-07T03:32:17;13.38;;;10.80;;
6626;SDS011;3349;49.830;8.748;2023-04-07T03:34:43;12.77;;;11.40;;
6626;SDS011;3349;49.830;8.748;2023-04-07T03:37:10;14.00;;;11.10;;
6626;SDS011;3349;49.830;8.748;2023-04-07T03:39:37;12.70;;;10.65;;
6626;SDS011;3349;49.830;8.748;2023-04-07T03:42:05;14.93;;;10.70;;
6626;SDS011;3349;49.830;8.748;2023-04-07T03:44:31;13.52;;;10.88;;
6626;SDS011;3349;49.830;8.748;2023-04-07T03:46:59;12.70;;;10.45;;
6626;SDS011;3349;49.830;8.748;2023-04-07T03:49:27;14.20;;;10.93;;
6626;SDS011;3349;49.830;8.748;2023-04-07T03:51:55;14.23;;;11.05;;
6626;SDS011;3349;49.830;8.748;2023-04-07T03:54:22;16.70;;;11.77;;
6626;SDS011;3349;49.830;8.748;2023-04-07T03:56:49;14.10;;;11.13;;
6626;SDS011;3349;49.830;8.748;2023-04-07T03:59:16;12.27;;;10.38;;
6626;SDS011;3349;49.830;8.748;2023-04-07T04:01:43;13.40;;;11.38;;
6626;SDS011;3349;49.830;8.748;2023-04-07T04:04:11;14.55;;;11.07;;
6626;SDS011;3349;49.830;8.748;2023-04-07T04:06:39;13.68;;;11.05;;
6626;SDS011;3349;49.830;8.748;2023-04-07T04:09:05;16.33;;;11.05;;
6626;SDS011;3349;49.830;8.748;2023-04-07T04:11:32;13.30;;;10.30;;
6626;SDS011;3349;49.830;8.748;2023-04-07T04:13:59;15.10;;;11.90;;
6626;SDS011;3349;49.830;8.748;2023-04-07T04:16:26;13.82;;;10.60;;
6626;SDS011;3349;49.830;8.748;2023-04-07T04:18:53;11.60;;;10.35;;
6626;SDS011;3349;49.830;8.748;2023-04-07T04:21:19;13.05;;;10.57;;
6626;SDS011;3349;49.830;8.748;2023-04-07T04:23:47;12.57;;;10.60;;
6626;SDS011;3349;49.830;8.748;2023-04-07T04:26:14;13.88;;;11.25;;
6626;SDS011;3349;49.830;8.748;2023-04-07T04:28:41;14.95;;;11.85;;
6626;SDS011;3349;49.830;8.748;2023-04-07T04:31:07;13.48;;;10.38;;
6626;SDS011;3349;49.830;8.748;2023-04-07T04:33:34;12.85;;;10.00;;
6626;SDS011;3349;49.830;8.748;2023-04-07T04:36:01;14.43;;;11.65;;
6626;SDS011;3349;49.830;8.748;2023-04-07T04:38:28;14.70;;;11.70;;
6626;SDS011;3349;49.830;8.748;2023-04-07T04:40:58;14.60;;;11.07;;
6626;SDS011;3349;49.830;8.748;2023-04-07T04:43:25;13.38;;;10.70;;
6626;SDS011;3349;49.830;8.748;2023-04-07T04:45:51;13.02;;;10.70;;
6626;SDS011;3349;49.830;8.748;2023-04-07T04:48:18;12.80;;;10.82;;
6626;SDS011;3349;49.830;8.748;2023-04-07T04:50:45;12.75;;;10.52;;
6626;SDS011;3349;49.830;8.748;2023-04-07T04:53:12;12.35;;;10.20;;
6626;SDS011;3349;49.830;8.748;2023-04-07T04:55:38;13.52;;;10.32;;
6626;SDS011;3349;49.830;8.748;2023-04-07T04:58:09;12.05;;;10.57;;
6626;SDS011;3349;49.830;8.748;2023-04-07T05:00:36;17.17;;;12.70;;
6626;SDS011;3349;49.830;8.748;2023-04-07T05:03:02;26.85;;;19.55;;
6626;SDS011;3349;49.830;8.748;2023-04-07T05:05:29;35.72;;;27.27;;
6626;SDS011;3349;49.830;8.748;2023-04-07T05:07:56;30.80;;;23.15;;
6626;SDS011;3349;49.830;8.748;2023-04-07T05:10:23;24.65;;;19.13;;
6626;SDS011;3349;49.830;8.748;2023-04-07T05:12:50;21.48;;;17.65;;
6626;SDS011;3349;49.830;8.748;2023-04-07T05:15:18;17.50;;;14.98;;
6626;SDS011;3349;49.830;8.748;2023-04-07T05:17:45;22.60;;;16.40;;
6626;SDS011;3349;49.830;8.748;2023-04-07T05:20:14;21.70;;;16.55;;
6626;SDS011;3349;49.830;8.748;2023-04-07T05:22:41;18.20;;;15.15;;
6626;SDS011;3349;49.830;8.748;2023-04-07T05:25:08;21.10;;;14.82;;
6626;SDS011;3349;49.830;8.748;2023-04-07T05:27:35;17.73;;;14.05;;
6626;SDS011;3349;49.830;8.748;2023-04-07T05:30:02;14.38;;;12.75;;
6626;SDS011;3349;49.830;8.748;2023-04-07T05:32:30;16.75;;;13.48;;
6626;SDS011;3349;49.830;8.748;2023-04-07T05:34:57;14.38;;;11.95;;
6626;SDS011;3349;49.830;8.748;2023-04-07T05:37:24;15.35;;;11.55;;
6626;SDS011;3349;49.830;8.748;2023-04-07T05:39:51;13.88;;;11.15;;
6626;SDS011;3349;49.830;8.748;2023-04-07T05:42:17;13.60;;;11.45;;
6626;SDS011;3349;49.830;8.748;2023-04-07T05:44:44;15.93;;;12.48;;
6626;SDS011;3349;49.830;8.748;2023-04-07T05:47:11;15.85;;;12.40;;
6626;SDS011;3349;49.830;8.748;2023-04-07T05:49:39;13.07;;;11.65;;
6626;SDS011;3349;49.830;8.748;2023-04-07T05:52:10;14.52;;;11.52;;
6626;SDS011;3349;49.830;8.748;2023-04-07T05:54:37;15.65;;;13.32;;
6626;SDS011;3349;49.830;8.748;2023-04-07T05:57:04;15.23;;;12.38;;
6626;SDS011;3349;49.830;8.748;2023-04-07T05:59:31;15.60;;;12.32;;
6626;SDS011;3349;49.830;8.748;2023-04-07T06:01:58;15.48;;;12.93;;
6626;SDS011;3349;49.830;8.748;2023-04-07T06:04:25;17.63;;;12.82;;
6626;SDS011;3349;49.830;8.748;2023-04-07T06:06:53;16.27;;;13.40;;
6626;SDS011;3349;49.830;8.748;2023-04-07T06:09:20;20.30;;;14.52;;
6626;SDS011;3349;49.830;8.748;2023-04-07T06:11:47;17.63;;;13.70;;
6626;SDS011;3349;49.830;8.748;2023-04-07T06:14:15;16.65;;;13.57;;
6626;SDS011;3349;49.830;8.748;2023-04-07T06:16:42;18.17;;;14.88;;
6626;SDS011;3349;49.830;8.748;2023-04-07T06:19:09;17.60;;;14.00;;
6626;SDS011;3349;49.830;8.748;2023-04-07T06:21:36;14.82;;;12.73;;
6626;SDS011;3349;49.830;8.748;2023-04-07T06:24:05;14.38;;;12.57;;
6626;SDS011;3349;49.830;8.748;2023-04-07T06:26:33;15.25;;;12.27;;
6626;SDS011;3349;49.830;8.748;2023-04-07T06:29:00;13.75;;;11.18;;
6626;SDS011;3349;49.830;8.748;2023-04-07T06:31:27;13.35;;;11.48;;
6626;SDS011;3349;49.830;8.748;2023-04-07T06:33:53;11.57;;;10.20;;
6626;SDS011;3349;49.830;8.748;2023-04-07T06:36:20;14.23;;;10.60;;
6626;SDS011;3349;49.830;8.748;2023-04-07T06:38:47;13.07;;;9.93;;
6626;SDS011;3349;49.830;8.748;2023-04-07T06:41:16;11.35;;;9.65;;
6626;SDS011;3349;49.830;8.748;2023-04-07T06:43:42;13.52;;;10.40;;
6626;SDS011;3349;49.830;8.748;2023-04-07T06:46:09;12.45;;;9.70;;
6626;SDS011;3349;49.830;8.748;2023-04-07T06:48:36;15.55;;;10.00;;
6626;SDS011;3349;49.830;8.748;2023-04-07T06:51:03;13.98;;;9.27;;
6626;SDS011;3349;49.830;8.748;2023-04-07T06:53:29;11.05;;;9.57;;
6626;SDS011;3349;49.830;8.748;2023-04-07T06:56:03;11.93;;;9.73;;
6626;SDS011;3349;49.830;8.748;2023-04-07T06:58:32;11.63;;;9.52;;
6626;SDS011;3349;49.830;8.748;2023-04-07T07:00:58;11.60;;;9.07;;
6626;SDS011;3349;49.830;8.748;2023-04-07T07:03:25;12.52;;;9.98;;
6626;SDS011;3349;49.830;8.748;2023-04-07T07:05:53;13.02;;;9.55;;
6626;SDS011;3349;49.830;8.748;2023-04-07T07:08:21;13.45;;;9.82;;
6626;SDS011;3349;49.830;8.748;2023-04-07T07:10:48;22.33;;;17.27;;
6626;SDS011;3349;49.830;8.748;2023-04-07T07:13:15;17.38;;;13.77;;
6626;SDS011;3349;49.830;8.748;2023-04-07T07:15:44;12.88;;;10.80;;
6626;SDS011;3349;49.830;8.748;2023-04-07T07:18:11;11.77;;;10.15;;
6626;SDS011;3349;49.830;8.748;2023-04-07T07:20:38;12.98;;;10.15;;
6626;SDS011;3349;49.830;8.748;2023-04-07T07:23:04;12.80;;;10.82;;
6626;SDS011;3349;49.830;8.748;2023-04-07T07:25:31;12.40;;;9.23;;
6626;SDS011;3349;49.830;8.748;2023-04-07T07:27:58;12.90;;;9.32;;
6626;SDS011;3349;49.830;8.748;2023-04-07T07:30:25;12.00;;;9.38;;
6626;SDS011;3349;49.830;8.748;2023-04-07T07:32:53;12.38;;;9.85;;
6626;SDS011;3349;49.830;8.748;2023-04-07T07:35:20;12.48;;;9.43;;
6626;SDS011;3349;49.830;8.748;2023-04-07T07:37:49;11.70;;;9.13;;
6626;SDS011;3349;49.830;8.748;2023-04-07T07:40:16;16.35;;;10.30;;
6626;SDS011;3349;49.830;8.748;2023-04-07T07:42:44;15.35;;;9.38;;
6626;SDS011;3349;49.830;8.748;2023-04-07T07:45:11;13.63;;;9.90;;
6626;SDS011;3349;49.830;8.748;2023-04-07T07:47:38;12.13;;;9.93;;
6626;SDS011;3349;49.830;8.748;2023-04-07T07:50:06;14.38;;;9.88;;
6626;SDS011;3349;49.830;8.748;2023-04-07T07:52:33;13.57;;;9.68;;
6626;SDS011;3349;49.830;8.748;2023-04-07T07:55:00;16.10;;;9.73;;
6626;SDS011;3349;49.830;8.748;2023-04-07T07:57:27;12.73;;;10.65;;
6626;SDS011;3349;49.830;8.748;2023-04-07T07:59:54;14.32;;;10.05;;
6626;SDS011;3349;49.830;8.748;2023-04-07T08:02:21;13.27;;;10.15;;
6626;SDS011;3349;49.830;8.748;2023-04-07T08:04:53;14.57;;;10.07;;
6626;SDS011;3349;49.830;8.748;2023-04-07T08:07:22;14.90;;;10.15;;
6626;SDS011;3349;49.830;8.748;2023-04-07T08:09:49;11.88;;;10.57;;
6626;SDS011;3349;49.830;8.748;2023-04-07T08:12:15;17.33;;;11.20;;
6626;SDS011;3349;49.830;8.748;2023-04-07T08:14:42;15.43;;;10.75;;
6626;SDS011;3349;49.830;8.748;2023-04-07T08:17:09;16.55;;;10.85;;
6626;SDS011;3349;49.830;8.748;2023-04-07T08:19:36;15.27;;;10.50;;
6626;SDS011;3349;49.830;8.748;2023-04-07T08:22:03;15.25;;;11.52;;
6626;SDS011;3349;49.830;8.748;2023-04-07T08:24:31;13.50;;;10.43;;
6626;SDS011;3349;49.830;8.748;2023-04-07T08:26:58;14.50;;;10.38;;
6626;SDS011;3349;49.830;8.748;2023-04-07T08:29:25;13.02;;;10.30;;
6626;SDS011;3349;49.830;8.748;2023-04-07T08:31:52;14.57;;;10.23;;
6626;SDS011;3349;49.830;8.748;2023-04-07T08:34:18;14.43;;;10.80;;
6626;SDS011;3349;49.830;8.748;2023-04-07T08:36:45;12.95;;;10.70;;
6626;SDS011;3349;49.830;8.748;2023-04-07T08:39:12;15.23;;;10.75;;
6626;SDS011;3349;49.830;8.748;2023-04-07T08:41:40;15.40;;;10.55;;
6626;SDS011;3349;49.830;8.748;2023-04-07T08:44:09;12.77;;;10.38;;
6626;SDS011;3349;49.830;8.748;2023-04-07T08:46:37;15.13;;;10.68;;
6626;SDS011;3349;49.830;8.748;2023-04-07T08:49:06;12.57;;;11.15;;
6626;SDS011;3349;49.830;8.748;2023-04-07T08:51:36;13.93;;;10.55;;
6626;SDS011;3349;49.830;8.748;2023-04-07T08:54:04;14.13;;;10.98;;
6626;SDS011;3349;49.830;8.748;2023-04-07T08:56:35;13.52;;;10.93;;
6626;SDS011;3349;49.830;8.748;2023-04-07T08:59:06;17.15;;;12.02;;
6626;SDS011;3349;49.830;8.748;2023-04-07T09:01:36;16.75;;;11.80;;
6626;SDS011;3349;49.830;8.748;2023-04-07T09:04:14;17.67;;;11.88;;
6626;SDS011;3349;49.830;8.748;2023-04-07T09:06:42;20.50;;;12.88;;
6626;SDS011;3349;49.830;8.748;2023-04-07T09:09:09;18.83;;;12.57;;
6626;SDS011;3349;49.830;8.748;2023-04-07T09:11:37;15.70;;;12.35;;
6626;SDS011;3349;49.830;8.748;2023-04-07T09:14:06;16.63;;;11.93;;
6626;SDS011;3349;49.830;8.748;2023-04-07T09:16:33;17.05;;;12.30;;
6626;SDS011;3349;49.830;8.748;2023-04-07T09:19:00;17.60;;;12.82;;
6626;SDS011;3349;49.830;8.748;2023-04-07T09:21:29;16.60;;;11.93;;
6626;SDS011;3349;49.830;8.748;2023-04-07T09:24:20;18.00;;;13.35;;
6626;SDS011;3349;49.830;8.748;2023-04-07T09:26:48;15.30;;;12.48;;
6626;SDS011;3349;49.830;8.748;2023-04-07T09:29:18;18.73;;;12.82;;
6626;SDS011;3349;49.830;8.748;2023-04-07T09:31:46;14.82;;;12.10;;
6626;SDS011;3349;49.830;8.748;2023-04-07T09:34:22;19.65;;;13.38;;
6626;SDS011;3349;49.830;8.748;2023-04-07T09:36:50;16.10;;;11.80;;
6626;SDS011;3349;49.830;8.748;2023-04-07T09:39:17;17.17;;;12.60;;
6626;SDS011;3349;49.830;8.748;2023-04-07T09:41:44;19.90;;;13.10;;
6626;SDS011;3349;49.830;8.748;2023-04-07T09:44:12;18.25;;;12.65;;
6626;SDS011;3349;49.830;8.748;2023-04-07T09:46:48;15.75;;;12.55;;
6626;SDS011;3349;49.830;8.748;2023-04-07T09:49:16;19.38;;;11.32;;
6626;SDS011;3349;49.830;8.748;2023-04-07T09:51:51;17.10;;;12.93;;
6626;SDS011;3349;49.830;8.748;2023-04-07T09:54:30;15.00;;;11.77;;
6626;SDS011;3349;49.830;8.748;2023-04-07T09:56:59;16.13;;;12.15;;
6626;SDS011;3349;49.830;8.748;2023-04-07T09:59:27;13.60;;;11.13;;
6626;SDS011;3349;49.830;8.748;2023-04-07T10:01:55;12.98;;;11.25;;
6626;SDS011;3349;49.830;8.748;2023-04-07T10:04:22;12.30;;;10.48;;
6626;SDS011;3349;49.830;8.748;2023-04-07T10:06:50;12.75;;;10.77;;
6626;SDS011;3349;49.830;8.748;2023-04-07T10:09:18;15.18;;;10.63;;
6626;SDS011;3349;49.830;8.748;2023-04-07T10:11:45;12.35;;;10.82;;
6626;SDS011;3349;49.830;8.748;2023-04-07T10:14:12;15.25;;;12.00;;
6626;SDS011;3349;49.830;8.748;2023-04-07T10:16:41;13.70;;;10.85;;
6626;SDS011;3349;49.830;8.748;2023-04-07T10:19:09;15.48;;;10.65;;
6626;SDS011;3349;49.830;8.748;2023-04-07T10:21:37;11.88;;;8.73;;
6626;SDS011;3349;49.830;8.748;2023-04-07T10:24:08;12.80;;;9.55;;
6626;SDS011;3349;49.830;8.748;2023-04-07T10:26:46;11.02;;;9.52;;
6626;SDS011;3349;49.830;8.748;2023-04-07T10:29:17;10.05;;;9.02;;
6626;SDS011;3349;49.830;8.748;2023-04-07T10:31:44;11.15;;;8.65;;
6626;SDS011;3349;49.830;8.748;2023-04-07T10:34:13;11.00;;;8.52;;
6626;SDS011;3349;49.830;8.748;2023-04-07T10:39:34;9.35;;;8.35;;
6626;SDS011;3349;49.830;8.748;2023-04-07T10:42:01;10.82;;;9.45;;
6626;SDS011;3349;49.830;8.748;2023-04-07T10:44:44;11.40;;;9.65;;
6626;SDS011;3349;49.830;8.748;2023-04-07T10:47:13;14.25;;;9.70;;
6626;SDS011;3349;49.830;8.748;2023-04-07T10:50:13;10.80;;;8.57;;
6626;SDS011;3349;49.830;8.748;2023-04-07T10:52:45;9.27;;;8.27;;
6626;SDS011;3349;49.830;8.748;2023-04-07T10:55:32;9.10;;;8.20;;
6626;SDS011;3349;49.830;8.748;2023-04-07T10:58:13;8.07;;;6.97;;
6626;SDS011;3349;49.830;8.748;2023-04-07T11:00:41;9.35;;;8.05;;
6626;SDS011;3349;49.830;8.748;2023-04-07T11:03:09;8.55;;;7.70;;
6626;SDS011;3349;49.830;8.748;2023-04-07T11:05:38;8.43;;;7.32;;
6626;SDS011;3349;49.830;8.748;2023-04-07T11:08:05;8.75;;;7.80;;
6626;SDS011;3349;49.830;8.748;2023-04-07T11:10:32;8.82;;;7.60;;
6626;SDS011;3349;49.830;8.748;2023-04-07T11:13:00;10.55;;;8.52;;
6626;SDS011;3349;49.830;8.748;2023-04-07T11:15:33;11.13;;;8.75;;
6626;SDS011;3349;49.830;8.748;2023-04-07T11:18:11;8.85;;;7.95;;
6626;SDS011;3349;49.830;8.748;2023-04-07T11:20:53;7.93;;;7.13;;
6626;SDS011;3349;49.830;8.748;2023-04-07T11:23:22;9.70;;;8.30;;
6626;SDS011;3349;49.830;8.748;2023-04-07T11:25:52;9.75;;;7.78;;
6626;SDS011;3349;49.830;8.748;2023-04-07T11:28:24;9.05;;;7.72;;
6626;SDS011;3349;49.830;8.748;2023-04-07T11:30:51;9.43;;;8.25;;
6626;SDS011;3349;49.830;8.748;2023-04-07T11:33:30;9.82;;;8.23;;
6626;SDS011;3349;49.830;8.748;2023-04-07T11:36:02;9.07;;;7.55;;
6626;SDS011;3349;49.830;8.748;2023-04-07T11:38:33;9.43;;;8.20;;
6626;SDS011;3349;49.830;8.748;2023-04-07T11:41:08;8.65;;;7.50;;
6626;SDS011;3349;49.830;8.748;2023-04-07T11:43:36;9.15;;;7.90;;
6626;SDS011;3349;49.830;8.748;2023-04-07T11:46:06;9.68;;;8.05;;
6626;SDS011;3349;49.830;8.748;2023-04-07T11:48:34;9.52;;;8.32;;
6626;SDS011;3349;49.830;8.748;2023-04-07T11:51:03;10.52;;;8.57;;
6626;SDS011;3349;49.830;8.748;2023-04-07T11:53:31;9.90;;;8.90;;
6626;SDS011;3349;49.830;8.748;2023-04-07T11:55:59;11.32;;;9.90;;
6626;SDS011;3349;49.830;8.748;2023-04-07T11:58:30;12.25;;;10.27;;
6626;SDS011;3349;49.830;8.748;2023-04-07T12:00:57;12.45;;;11.02;;
6626;SDS011;3349;49.830;8.748;2023-04-07T12:03:29;12.43;;;11.18;;
6626;SDS011;3349;49.830;8.748;2023-04-07T12:05:56;11.38;;;9.82;;
6626;SDS011;3349;49.830;8.748;2023-04-07T12:08:36;11.68;;;10.48;;
6626;SDS011;3349;49.830;8.748;2023-04-07T12:11:04;12.90;;;9.98;;
6626;SDS011;3349;49.830;8.748;2023-04-07T12:13:32;10.55;;;9.52;;
6626;SDS011;3349;49.830;8.748;2023-04-07T12:15:58;11.80;;;9.20;;
6626;SDS011;3349;49.830;8.748;2023-04-07T12:18:25;10.65;;;9.55;;
6626;SDS011;3349;49.830;8.748;2023-04-07T12:20:52;10.70;;;9.60;;
6626;SDS011;3349;49.830;8.748;2023-04-07T12:23:20;11.63;;;10.18;;
6626;SDS011;3349;49.830;8.748;2023-04-07T12:25:48;11.45;;;9.88;;
6626;SDS011;3349;49.830;8.748;2023-04-07T12:28:16;12.57;;;9.90;;
6626;SDS011;3349;49.830;8.748;2023-04-07T12:30:43;11.35;;;8.85;;
6626;SDS011;3349;49.830;8.748;2023-04-07T12:33:09;11.75;;;8.15;;
6626;SDS011;3349;49.830;8.748;2023-04-07T12:35:36;10.32;;;8.10;;
6626;SDS011;3349;49.830;8.748;2023-04-07T12:38:04;9.10;;;7.97;;
6626;SDS011;3349;49.830;8.748;2023-04-07T12:40:32;7.47;;;6.60;;
6626;SDS011;3349;49.830;8.748;2023-04-07T12:43:01;7.97;;;7.18;;
6626;SDS011;3349;49.830;8.748;2023-04-07T12:45:28;10.82;;;8.77;;
6626;SDS011;3349;49.830;8.748;2023-04-07T12:47:55;11.52;;;9.60;;
6626;SDS011;3349;49.830;8.748;2023-04-07T12:50:23;10.55;;;9.32;;
6626;SDS011;3349;49.830;8.748;2023-04-07T12:52:50;11.43;;;9.30;;
6626;SDS011;3349;49.830;8.748;2023-04-07T12:55:18;11.43;;;10.27;;
6626;SDS011;3349;49.830;8.748;2023-04-07T12:57:45;10.38;;;9.15;;
6626;SDS011;3349;49.830;8.748;2023-04-07T13:00:13;7.90;;;6.60;;
6626;SDS011;3349;49.830;8.748;2023-04-07T13:02:40;6.55;;;4.25;;
6626;SDS011;3349;49.830;8.748;2023-04-07T13:05:07;9.45;;;6.90;;
6626;SDS011;3349;49.830;8.748;2023-04-07T13:07:34;5.85;;;5.32;;
6626;SDS011;3349;49.830;8.748;2023-04-07T13:10:02;7.30;;;6.53;;
6626;SDS011;3349;49.830;8.748;2023-04-07T13:12:30;8.32;;;7.53;;
6626;SDS011;3349;49.830;8.748;2023-04-07T13:14:56;7.47;;;6.78;;
6626;SDS011;3349;49.830;8.748;2023-04-07T13:17:24;8.88;;;8.07;;
6626;SDS011;3349;49.830;8.748;2023-04-07T13:19:52;10.27;;;8.48;;
6626;SDS011;3349;49.830;8.748;2023-04-07T13:22:19;9.45;;;8.20;;
6626;SDS011;3349;49.830;8.748;2023-04-07T13:24:46;8.98;;;8.07;;
6626;SDS011;3349;49.830;8.748;2023-04-07T13:27:13;9.70;;;8.43;;
6626;SDS011;3349;49.830;8.748;2023-04-07T13:29:40;9.20;;;8.30;;
6626;SDS011;3349;49.830;8.748;2023-04-07T13:32:07;9.13;;;8.23;;
6626;SDS011;3349;49.830;8.748;2023-04-07T13:34:38;7.15;;;6.43;;
6626;SDS011;3349;49.830;8.748;2023-04-07T13:37:05;9.23;;;7.50;;
6626;SDS011;3349;49.830;8.748;2023-04-07T13:39:31;10.93;;;8.43;;
6626;SDS011;3349;49.830;8.748;2023-04-07T13:41:58;10.32;;;8.77;;
6626;SDS011;3349;49.830;8.748;2023-04-07T13:44:25;10.43;;;8.90;;
6626;SDS011;3349;49.830;8.748;2023-04-07T13:46:53;8.43;;;7.32;;
6626;SDS011;3349;49.830;8.748;2023-04-07T13:49:21;9.23;;;8.27;;
6626;SDS011;3349;49.830;8.748;2023-04-07T13:51:49;9.85;;;8.57;;
6626;SDS011;3349;49.830;8.748;2023-04-07T13:54:16;9.45;;;8.35;;
6626;SDS011;3349;49.830;8.748;2023-04-07T13:56:42;8.15;;;7.35;;
6626;SDS011;3349;49.830;8.748;2023-04-07T13:59:09;8.38;;;7.57;;
6626;SDS011;3349;49.830;8.748;2023-04-07T14:01:36;8.20;;;7.40;;
6626;SDS011;3349;49.830;8.748;2023-04-07T14:04:03;8.93;;;8.02;;
6626;SDS011;3349;49.830;8.748;2023-04-07T14:06:30;10.57;;;8.93;;
6626;SDS011;3349;49.830;8.748;2023-04-07T14:08:58;10.70;;;9.25;;
6626;SDS011;3349;49.830;8.748;2023-04-07T14:11:25;11.48;;;10.27;;
6626;SDS011;3349;49.830;8.748;2023-04-07T14:13:53;11.70;;;10.50;;
6626;SDS011;3349;49.830;8.748;2023-04-07T14:16:21;12.00;;;10.80;;
6626;SDS011;3349;49.830;8.748;2023-04-07T14:18:47;11.95;;;10.30;;
6626;SDS011;3349;49.830;8.748;2023-04-07T14:21:15;10.65;;;9.52;;
6626;SDS011;3349;49.830;8.748;2023-04-07T14:23:42;11.55;;;9.60;;
6626;SDS011;3349;49.830;8.748;2023-04-07T14:26:11;11.75;;;10.40;;
6626;SDS011;3349;49.830;8.748;2023-04-07T14:28:38;13.93;;;10.93;;
6626;SDS011;3349;49.830;8.748;2023-04-07T14:31:05;12.40;;;10.77;;
6626;SDS011;3349;49.830;8.748;2023-04-07T14:33:37;12.30;;;10.90;;
6626;SDS011;3349;49.830;8.748;2023-04-07T14:36:03;12.95;;;10.85;;
6626;SDS011;3349;49.830;8.748;2023-04-07T14:38:31;12.57;;;11.20;;
6626;SDS011;3349;49.830;8.748;2023-04-07T14:40:57;13.32;;;11.02;;
6626;SDS011;3349;49.830;8.748;2023-04-07T14:43:26;16.15;;;13.43;;
6626;SDS011;3349;49.830;8.748;2023-04-07T14:45:53;16.25;;;13.27;;
6626;SDS011;3349;49.830;8.748;2023-04-07T14:48:20;13.98;;;10.93;;
6626;SDS011;3349;49.830;8.748;2023-04-07T14:50:47;11.55;;;9.05;;
6626;SDS011;3349;49.830;8.748;2023-04-07T14:53:14;12.70;;;10.05;;
6626;SDS011;3349;49.830;8.748;2023-04-07T14:55:41;9.48;;;8.38;;
6626;SDS011;3349;49.830;8.748;2023-04-07T14:58:08;11.27;;;7.50;;
6626;SDS011;3349;49.830;8.748;2023-04-07T15:00:36;6.78;;;6.07;;
6626;SDS011;3349;49.830;8.748;2023-04-07T15:03:04;6.50;;;5.82;;